createdAt,value
2024-05-09T00:14:37.504Z,27.19
2024-05-09T00:44:44.231Z,26.78
2024-05-09T01:14:51.270Z,26.18
2024-05-09T01:44:58.012Z,25.45
2024-05-09T02:15:05.200Z,24.44
2024-05-09T02:45:12.034Z,23.26
2024-05-09T03:15:19.218Z,22.04
2024-05-09T03:45:26.282Z,21.02
2024-05-09T04:15:33.427Z,20.82
2024-05-09T04:45:40.256Z,20.70
2024-05-09T05:15:47.671Z,20.76
2024-05-09T05:45:54.543Z,20.86
2024-05-09T06:16:01.526Z,20.37
2024-05-09T06:46:08.260Z,20.10
2024-05-09T07:16:15.291Z,19.51
2024-05-09T08:16:31.797Z,18.41
2024-05-09T08:46:39.392Z,18.32
2024-05-09T09:16:46.395Z,18.43
2024-05-09T09:46:56.210Z,18.25
2024-05-09T10:17:08.636Z,18.27
2024-05-09T10:47:16.346Z,18.40
2024-05-09T11:17:24.052Z,17.86
2024-05-09T11:47:31.058Z,17.83
2024-05-09T12:17:38.174Z,17.10
2024-05-09T12:47:45.021Z,16.57
2024-05-09T13:17:52.316Z,16.48
2024-05-09T13:47:59.844Z,16.43
2024-05-09T14:18:11.448Z,17.00
2024-05-09T14:48:20.653Z,19.33
2024-05-09T15:18:27.910Z,22.62
2024-05-09T15:48:34.856Z,26.28
2024-05-09T16:18:42.381Z,28.07
2024-05-09T16:48:49.300Z,28.69
2024-05-09T17:18:56.331Z,29.52
2024-05-09T17:49:03.156Z,29.76
2024-05-09T18:19:10.361Z,29.39
2024-05-09T18:49:17.595Z,30.40
2024-05-09T19:19:24.839Z,30.26
2024-05-09T19:49:31.823Z,29.63
2024-05-09T20:19:38.935Z,29.35
2024-05-09T20:49:45.823Z,29.56
2024-05-09T21:19:53.139Z,30.16
2024-05-09T21:49:59.849Z,29.82
2024-05-09T22:20:14.680Z,29.80
2024-05-09T22:50:27.065Z,29.88
2024-05-09T23:20:41.386Z,29.34
2024-05-09T23:50:48.103Z,28.56
